createdAt,value
2017-08-14T00:00:13.594Z,102151
2017-08-14T00:02:41.741Z,102157
2017-08-14T00:05:10.669Z,102162
2017-08-14T00:07:38.863Z,102164
2017-08-14T00:10:07.034Z,102156
2017-08-14T00:12:38.554Z,102160
2017-08-14T00:15:06.779Z,102162
2017-08-14T00:17:34.922Z,102158
2017-08-14T00:20:03.074Z,102160
2017-08-14T00:22:31.245Z,102165
2017-08-14T00:25:00.182Z,102156
2017-08-14T00:27:28.567Z,102172
2017-08-14T00:29:56.773Z,102165
2017-08-14T00:32:24.935Z,102172
2017-08-14T00:34:53.091Z,102165
2017-08-14T00:37:21.288Z,102161
2017-08-14T00:39:49.437Z,102162
2017-08-14T00:42:17.590Z,102162
2017-08-14T00:44:45.762Z,102158
2017-08-14T00:47:13.930Z,102169
2017-08-14T00:49:42.092Z,102170
2017-08-14T00:52:11.338Z,102173
2017-08-14T00:54:39.482Z,102173
2017-08-14T00:57:07.631Z,102164
2017-08-14T00:59:35.830Z,102171
2017-08-14T01:02:03.997Z,102167
2017-08-14T01:04:32.157Z,102162
2017-08-14T01:07:01.095Z,102165
2017-08-14T01:09:29.257Z,102164
2017-08-14T01:11:57.402Z,102164
2017-08-14T01:14:25.795Z,102163
2017-08-14T01:16:53.949Z,102162
2017-08-14T01:19:22.877Z,102166
2017-08-14T01:21:51.069Z,102154
2017-08-14T01:24:19.234Z,102156
2017-08-14T01:26:47.374Z,102165
2017-08-14T01:29:16.309Z,102164
2017-08-14T01:31:44.450Z,102160
2017-08-14T01:34:12.596Z,102157
2017-08-14T01:36:41.541Z,102159
2017-08-14T01:39:09.684Z,102151
2017-08-14T01:41:37.835Z,102169
2017-08-14T01:44:06.803Z,102167
2017-08-14T01:46:34.964Z,102157
2017-08-14T01:49:03.135Z,102156
2017-08-14T01:51:31.319Z,102150
2017-08-14T01:53:59.457Z,102152
2017-08-14T01:56:27.602Z,102156
2017-08-14T01:58:56.558Z,102151
2017-08-14T02:01:24.697Z,102159
2017-08-14T02:03:52.839Z,102163
2017-08-14T02:06:21.030Z,102161
2017-08-14T02:08:49.948Z,102158
2017-08-14T02:11:18.097Z,102158
2017-08-14T02:13:46.287Z,102156
2017-08-14T02:16:14.453Z,102145
2017-08-14T02:18:42.602Z,102152
2017-08-14T02:21:10.796Z,102153
2017-08-14T02:23:38.969Z,102152
2017-08-14T02:26:07.126Z,102157
2017-08-14T02:28:35.671Z,102150
2017-08-14T02:31:03.816Z,102147
2017-08-14T02:33:31.980Z,102140
2017-08-14T02:36:00.155Z,102145
2017-08-14T02:38:28.325Z,102143
2017-08-14T02:40:57.257Z,102150
2017-08-14T02:43:25.427Z,102156
2017-08-14T02:45:53.589Z,102154
2017-08-14T02:48:21.757Z,102152
2017-08-14T02:50:49.956Z,102153
2017-08-14T02:53:18.125Z,102152
2017-08-14T02:55:46.274Z,102152
2017-08-14T02:58:14.453Z,102151
2017-08-14T03:00:42.601Z,102142
2017-08-14T03:03:11.866Z,102150
2017-08-14T03:05:40.052Z,102144
2017-08-14T03:08:08.217Z,102143
2017-08-14T03:10:36.387Z,102153
2017-08-14T03:13:04.565Z,102149
2017-08-14T03:15:32.724Z,102152
2017-08-14T03:18:01.735Z,102156
2017-08-14T03:20:29.928Z,102151
2017-08-14T03:22:58.093Z,102153
2017-08-14T03:25:26.272Z,102156
2017-08-14T03:27:54.450Z,102155
2017-08-14T03:30:22.619Z,102161
2017-08-14T03:32:51.554Z,102164
2017-08-14T03:35:19.736Z,102168
2017-08-14T03:37:47.878Z,102164
2017-08-14T03:40:16.814Z,102161
2017-08-14T03:42:45.002Z,102169
2017-08-14T03:45:13.145Z,102161
2017-08-14T03:47:41.307Z,102167
2017-08-14T03:50:10.255Z,102152
2017-08-14T03:52:38.426Z,102163
2017-08-14T03:55:06.602Z,102166
2017-08-14T03:57:34.789Z,102166
2017-08-14T04:00:02.939Z,102159
2017-08-14T04:02:31.106Z,102163
2017-08-14T04:04:59.293Z,102167
2017-08-14T04:07:27.445Z,102171
2017-08-14T04:09:55.610Z,102164
2017-08-14T04:12:23.789Z,102176
2017-08-14T04:14:52.209Z,102176
2017-08-14T04:17:20.399Z,102171
2017-08-14T04:19:48.581Z,102189
2017-08-14T04:22:16.741Z,102184
2017-08-14T04:24:44.882Z,102186
2017-08-14T04:27:13.056Z,102176
2017-08-14T04:29:41.211Z,102190
2017-08-14T04:32:09.365Z,102181
2017-08-14T04:34:38.312Z,102189
2017-08-14T04:37:06.483Z,102184
2017-08-14T04:39:34.883Z,102180
2017-08-14T04:42:03.076Z,102183
2017-08-14T04:44:31.221Z,102189
2017-08-14T04:47:00.138Z,102187
2017-08-14T04:49:28.330Z,102181
2017-08-14T04:51:56.475Z,102186
2017-08-14T04:54:24.626Z,102183
2017-08-14T04:56:53.587Z,102191
2017-08-14T04:59:21.738Z,102186
2017-08-14T05:01:49.878Z,102191
2017-08-14T05:04:18.066Z,102181
2017-08-14T05:06:46.237Z,102181
2017-08-14T05:09:14.418Z,102186
2017-08-14T05:11:43.945Z,102189
2017-08-14T05:14:12.114Z,102183
2017-08-14T05:16:40.264Z,102191
2017-08-14T05:19:09.232Z,102188
2017-08-14T05:21:37.399Z,102186
2017-08-14T05:24:05.541Z,102183
2017-08-14T05:26:33.737Z,102189
2017-08-14T05:29:01.900Z,102180
2017-08-14T05:31:30.052Z,102185
2017-08-14T05:33:58.248Z,102191
2017-08-14T05:36:26.402Z,102187
2017-08-14T05:38:54.546Z,102188
2017-08-14T05:41:22.739Z,102190
2017-08-14T05:43:51.674Z,102202
2017-08-14T05:46:19.842Z,102185
2017-08-14T05:48:48.030Z,102194
2017-08-14T05:51:16.179Z,102204
2017-08-14T05:53:44.325Z,102199
2017-08-14T05:56:13.282Z,102200
2017-08-14T05:58:41.433Z,102202
2017-08-14T06:01:09.586Z,102209
2017-08-14T06:03:37.757Z,102202
2017-08-14T06:06:05.920Z,102201
2017-08-14T06:08:34.827Z,102205
2017-08-14T06:11:03.017Z,102203
2017-08-14T06:13:31.182Z,102207
2017-08-14T06:15:59.324Z,102208
2017-08-14T06:18:28.285Z,102208
2017-08-14T06:20:56.454Z,102213
2017-08-14T06:23:24.607Z,102209
2017-08-14T06:25:52.786Z,102220
2017-08-14T06:28:20.948Z,102214
2017-08-14T06:30:49.096Z,102217
2017-08-14T06:33:18.347Z,102220
2017-08-14T06:35:46.488Z,102220
2017-08-14T06:38:14.629Z,102215
2017-08-14T06:40:43.598Z,102206
2017-08-14T06:43:11.742Z,102217
2017-08-14T06:45:39.909Z,102216
2017-08-14T06:48:08.100Z,102225
2017-08-14T06:50:36.247Z,102223
2017-08-14T06:53:04.411Z,102218
2017-08-14T06:55:32.590Z,102230
2017-08-14T06:58:01.520Z,102228
2017-08-14T07:00:29.662Z,102226
2017-08-14T07:02:57.842Z,102225
2017-08-14T07:05:26.007Z,102229
2017-08-14T07:07:54.168Z,102230
2017-08-14T07:10:23.129Z,102227
2017-08-14T07:12:51.277Z,102219
2017-08-14T07:15:19.427Z,102222
2017-08-14T07:17:47.615Z,102231
2017-08-14T07:20:15.789Z,102222
2017-08-14T07:22:43.935Z,102228
2017-08-14T07:25:12.874Z,102219
2017-08-14T07:27:41.045Z,102233
2017-08-14T07:30:09.208Z,102226
2017-08-14T07:32:37.714Z,102221
2017-08-14T07:35:05.877Z,102219
2017-08-14T07:37:34.021Z,102227
2017-08-14T07:40:02.256Z,102214
2017-08-14T07:42:30.403Z,102215
2017-08-14T07:44:58.571Z,102228
2017-08-14T07:47:26.765Z,102220
2017-08-14T07:49:54.944Z,102225
2017-08-14T07:52:23.107Z,102227
2017-08-14T07:54:51.301Z,102220
2017-08-14T07:57:19.470Z,102220
2017-08-14T07:59:47.696Z,102219
2017-08-14T08:02:15.874Z,102219
2017-08-14T08:04:44.045Z,102218
2017-08-14T08:07:12.205Z,102220
2017-08-14T08:09:41.149Z,102219
2017-08-14T08:12:09.299Z,102220
2017-08-14T08:14:37.469Z,102213
2017-08-14T08:17:05.660Z,102218
2017-08-14T08:19:33.806Z,102216
2017-08-14T08:22:01.953Z,102212
2017-08-14T08:24:30.130Z,102218
2017-08-14T08:26:59.073Z,102218
2017-08-14T08:29:27.236Z,102212
2017-08-14T08:31:55.441Z,102219
2017-08-14T08:34:23.596Z,102223
2017-08-14T08:36:51.766Z,102221
2017-08-14T08:39:19.944Z,102220
2017-08-14T08:41:48.098Z,102231
2017-08-14T08:44:16.250Z,102230
2017-08-14T08:46:44.459Z,102223
2017-08-14T08:49:12.629Z,102229
2017-08-14T08:51:40.799Z,102224
2017-08-14T08:54:09.005Z,102231
2017-08-14T08:56:37.181Z,102229
2017-08-14T08:59:05.326Z,102221
2017-08-14T09:01:33.525Z,102224
2017-08-14T09:04:01.674Z,102229
2017-08-14T09:06:29.819Z,102232
2017-08-14T09:08:58.762Z,102227
2017-08-14T09:11:26.916Z,102222
2017-08-14T09:13:55.064Z,102226
2017-08-14T09:16:24.020Z,102220
2017-08-14T09:18:52.196Z,102219
2017-08-14T09:21:20.354Z,102210
2017-08-14T09:23:48.543Z,102218
2017-08-14T09:26:16.691Z,102207
2017-08-14T09:28:44.886Z,102213
2017-08-14T09:31:13.076Z,102206
2017-08-14T09:33:41.241Z,102220
2017-08-14T09:36:09.404Z,102210
2017-08-14T09:38:37.599Z,102216
2017-08-14T09:41:05.772Z,102199
2017-08-14T09:43:33.939Z,102203
2017-08-14T09:46:02.152Z,102209
2017-08-14T09:48:31.071Z,102218
2017-08-14T09:50:59.242Z,102216
2017-08-14T09:53:27.442Z,102205
2017-08-14T09:55:55.586Z,102196
2017-08-14T09:58:23.735Z,102209
2017-08-14T10:00:51.924Z,102207
2017-08-14T10:03:20.857Z,102209
2017-08-14T10:05:49.030Z,102191
2017-08-14T10:08:17.203Z,102194
2017-08-14T10:10:45.343Z,102186
2017-08-14T10:13:14.256Z,102182
2017-08-14T10:15:42.429Z,102190
2017-08-14T10:18:10.575Z,102188
2017-08-14T10:20:39.493Z,102195
2017-08-14T10:23:07.698Z,102182
2017-08-14T10:25:35.882Z,102182
2017-08-14T10:28:04.034Z,102184
2017-08-14T10:30:32.237Z,102185
2017-08-14T10:33:00.402Z,102179
2017-08-14T10:35:28.573Z,102191
2017-08-14T10:37:56.765Z,102190
2017-08-14T10:40:24.929Z,102197
2017-08-14T10:42:53.405Z,102193
2017-08-14T10:45:21.584Z,102188
2017-08-14T10:47:49.725Z,102180
2017-08-14T10:50:17.882Z,102183
2017-08-14T10:52:46.073Z,102180
2017-08-14T10:55:14.240Z,102172
2017-08-14T10:57:42.520Z,102185
2017-08-14T11:00:10.708Z,102187
2017-08-14T11:02:38.872Z,102181
2017-08-14T11:05:07.021Z,102180
2017-08-14T11:07:35.981Z,102179
2017-08-14T11:10:04.142Z,102170
2017-08-14T11:12:32.307Z,102173
2017-08-14T11:15:00.510Z,102171
2017-08-14T11:17:28.654Z,102174
2017-08-14T11:19:56.802Z,102165
2017-08-14T11:22:24.982Z,102172
2017-08-14T11:24:53.346Z,102159
2017-08-14T11:27:22.249Z,102163
2017-08-14T11:29:50.420Z,102153
2017-08-14T11:32:18.561Z,102158
2017-08-14T11:34:46.721Z,102151
2017-08-14T11:37:14.928Z,102143
2017-08-14T11:39:43.842Z,102151
2017-08-14T11:42:12.003Z,102141
2017-08-14T11:44:40.182Z,102152
2017-08-14T11:47:08.322Z,102145
2017-08-14T11:49:36.462Z,102156
2017-08-14T11:52:04.649Z,102159
2017-08-14T11:54:32.821Z,102157
2017-08-14T11:57:00.962Z,102155
2017-08-14T11:59:29.157Z,102152
2017-08-14T12:01:57.308Z,102165
2017-08-14T12:04:25.451Z,102152
2017-08-14T12:06:54.553Z,102148
2017-08-14T12:09:23.470Z,102152
2017-08-14T12:11:51.614Z,102148
2017-08-14T12:14:20.578Z,102158
2017-08-14T12:16:48.746Z,102153
2017-08-14T12:19:16.893Z,102156
2017-08-14T12:21:45.087Z,102155
2017-08-14T12:24:13.230Z,102154
2017-08-14T12:26:41.384Z,102151
2017-08-14T12:29:09.565Z,102162
2017-08-14T12:31:37.711Z,102147
2017-08-14T12:34:05.883Z,102149
2017-08-14T12:36:34.059Z,102150
2017-08-14T12:39:02.225Z,102136
2017-08-14T12:41:30.379Z,102148
2017-08-14T12:43:58.562Z,102150
2017-08-14T12:46:26.729Z,102151
2017-08-14T12:48:54.900Z,102147
2017-08-14T12:51:23.107Z,102143
2017-08-14T12:53:51.284Z,102133
2017-08-14T12:56:19.435Z,102135
2017-08-14T12:58:47.651Z,102127
2017-08-14T13:01:15.835Z,102127
2017-08-14T13:03:43.998Z,102120
2017-08-14T13:06:12.950Z,102112
2017-08-14T13:08:41.105Z,102112
2017-08-14T13:11:09.507Z,102111
2017-08-14T13:13:37.705Z,102110
2017-08-14T13:16:06.178Z,102110
2017-08-14T13:18:34.349Z,102104
2017-08-14T13:21:02.553Z,102111
2017-08-14T13:23:31.498Z,102108
2017-08-14T13:25:59.665Z,102109
2017-08-14T13:28:27.858Z,102095
2017-08-14T13:30:56.007Z,102099
2017-08-14T13:33:24.171Z,102101
2017-08-14T13:35:52.346Z,102093
2017-08-14T13:38:20.522Z,102097
2017-08-14T13:40:48.694Z,102087
2017-08-14T13:43:16.900Z,102083
2017-08-14T13:45:45.072Z,102089
2017-08-14T13:48:13.225Z,102080
2017-08-14T13:50:41.399Z,102088
2017-08-14T13:53:09.552Z,102074
2017-08-14T13:55:37.707Z,102083
2017-08-14T13:58:06.652Z,102077
2017-08-14T14:00:34.820Z,102068
2017-08-14T14:03:03.220Z,102063
2017-08-14T14:05:31.403Z,102069
2017-08-14T14:07:59.584Z,102055
2017-08-14T14:10:27.758Z,102056
2017-08-14T14:12:55.970Z,102051
2017-08-14T14:15:24.141Z,102052
2017-08-14T14:17:53.081Z,102042
2017-08-14T14:20:21.280Z,102051
2017-08-14T14:22:49.438Z,102044
2017-08-14T14:25:17.590Z,102037
2017-08-14T14:27:45.793Z,102032
2017-08-14T14:30:13.939Z,102039
2017-08-14T14:32:42.105Z,102038
2017-08-14T14:35:10.282Z,102039
2017-08-14T14:37:38.434Z,102034
2017-08-14T14:40:07.376Z,102035
2017-08-14T14:42:35.550Z,102037
2017-08-14T14:45:03.717Z,102033
2017-08-14T14:47:34.962Z,102023
2017-08-14T14:50:03.161Z,102019
2017-08-14T14:52:31.341Z,102018
2017-08-14T14:54:59.509Z,102019
2017-08-14T14:57:28.105Z,102015
2017-08-14T14:59:56.389Z,102011
2017-08-14T15:02:24.547Z,102000
2017-08-14T15:04:52.728Z,102002
2017-08-14T15:07:20.874Z,102000
2017-08-14T15:09:49.040Z,101981
2017-08-14T15:12:17.267Z,101987
2017-08-14T15:14:46.204Z,101983
2017-08-14T15:17:14.379Z,101976
2017-08-14T15:19:42.553Z,101973
2017-08-14T15:22:10.717Z,101982
2017-08-14T15:24:38.869Z,101979
2017-08-14T15:27:07.068Z,101976
2017-08-14T15:29:35.213Z,101980
2017-08-14T15:32:03.366Z,101973
2017-08-14T15:34:31.562Z,101965
2017-08-14T15:37:00.478Z,101970
2017-08-14T15:39:28.644Z,101964
2017-08-14T15:41:56.818Z,101962
2017-08-14T15:44:24.984Z,101965
2017-08-14T15:46:53.138Z,101969
2017-08-14T15:49:22.087Z,101968
2017-08-14T15:51:50.234Z,101964
2017-08-14T15:54:18.405Z,101967
2017-08-14T15:56:46.580Z,101966
2017-08-14T15:59:14.745Z,101958
2017-08-14T16:01:42.920Z,101960
2017-08-14T16:04:11.117Z,101944
2017-08-14T16:06:39.273Z,101962
2017-08-14T16:09:07.421Z,101957
2017-08-14T16:11:35.598Z,101964
2017-08-14T16:14:04.517Z,101962
2017-08-14T16:16:32.681Z,101958
2017-08-14T16:19:00.854Z,101956
2017-08-14T16:21:29.790Z,101948
2017-08-14T16:23:57.939Z,101955
2017-08-14T16:26:26.110Z,101951
2017-08-14T16:28:54.255Z,101955
2017-08-14T16:31:23.189Z,101945
2017-08-14T16:33:51.382Z,101946
2017-08-14T16:36:19.550Z,101943
2017-08-14T16:38:47.697Z,101941
2017-08-14T16:41:15.872Z,101943
2017-08-14T16:43:44.037Z,101937
2017-08-14T16:46:12.206Z,101931
2017-08-14T16:48:41.157Z,101932
2017-08-14T16:51:09.302Z,101926
2017-08-14T16:53:37.446Z,101921
2017-08-14T16:56:06.395Z,101917
2017-08-14T16:58:34.584Z,101923
2017-08-14T17:01:02.754Z,101912
2017-08-14T17:03:30.930Z,101899
2017-08-14T17:05:59.105Z,101902
2017-08-14T17:08:27.276Z,101898
2017-08-14T17:10:55.450Z,101895
2017-08-14T17:13:23.617Z,101890
2017-08-14T17:15:51.781Z,101888
2017-08-14T17:18:19.959Z,101887
2017-08-14T17:20:48.131Z,101884
2017-08-14T17:23:16.298Z,101884
2017-08-14T17:25:44.808Z,101891
2017-08-14T17:28:12.988Z,101891
2017-08-14T17:30:41.133Z,101900
2017-08-14T17:33:09.305Z,101911
2017-08-14T17:35:37.452Z,101893
2017-08-14T17:38:05.602Z,101899
2017-08-14T17:40:34.562Z,101886
2017-08-14T17:43:02.720Z,101893
2017-08-14T17:45:30.921Z,101888
2017-08-14T17:47:59.096Z,101900
2017-08-14T17:50:27.246Z,101896
2017-08-14T17:52:55.393Z,101891
2017-08-14T17:55:23.587Z,101900
2017-08-14T17:57:51.739Z,101889
2017-08-14T18:00:19.899Z,101892
2017-08-14T18:02:48.857Z,101891
2017-08-14T18:05:17.018Z,101893
2017-08-14T18:07:45.183Z,101889
2017-08-14T18:10:13.363Z,101891
2017-08-14T18:12:41.533Z,101879
2017-08-14T18:15:10.503Z,101888
2017-08-14T18:17:38.679Z,101886
2017-08-14T18:20:06.829Z,101881
2017-08-14T18:22:35.777Z,101886
2017-08-14T18:25:03.947Z,101884
2017-08-14T18:27:32.091Z,101880
2017-08-14T18:30:00.254Z,101879
2017-08-14T18:32:28.430Z,101888
2017-08-14T18:34:56.579Z,101885
2017-08-14T18:37:25.504Z,101885
2017-08-14T18:39:53.697Z,101886
2017-08-14T18:42:21.851Z,101884
2017-08-14T18:44:50.004Z,101894
2017-08-14T18:47:18.962Z,101891
2017-08-14T18:49:47.109Z,101886
2017-08-14T18:52:15.276Z,101886
2017-08-14T18:54:43.459Z,101886
2017-08-14T18:57:11.635Z,101894
2017-08-14T18:59:39.807Z,101891
2017-08-14T19:02:08.009Z,101890
2017-08-14T19:04:36.180Z,101889
2017-08-14T19:07:04.351Z,101893
2017-08-14T19:09:33.435Z,101892
2017-08-14T19:12:00.746Z,101895
2017-08-14T19:14:29.678Z,101896
2017-08-14T19:16:57.849Z,101892
2017-08-14T19:19:26.021Z,101897
2017-08-14T19:21:54.183Z,101892
2017-08-14T19:24:22.378Z,101899
2017-08-14T19:26:50.548Z,101901
2017-08-14T19:29:18.724Z,101904
2017-08-14T19:31:46.905Z,101894
2017-08-14T19:34:15.051Z,101891
2017-08-14T19:36:43.214Z,101898
2017-08-14T19:39:11.390Z,101902
2017-08-14T19:41:39.533Z,101912
2017-08-14T19:44:07.773Z,101897
2017-08-14T19:46:35.960Z,101891
2017-08-14T19:49:04.123Z,101898
2017-08-14T19:51:32.273Z,101895
2017-08-14T19:54:00.473Z,101907
2017-08-14T19:56:28.624Z,101894
2017-08-14T19:58:56.775Z,101899
2017-08-14T20:01:25.745Z,101886
2017-08-14T20:03:53.916Z,101895
2017-08-14T20:06:22.086Z,101888
2017-08-14T20:08:50.282Z,101892
2017-08-14T20:11:19.190Z,101892
2017-08-14T20:13:48.121Z,101899
2017-08-14T20:16:16.304Z,101887
2017-08-14T20:18:44.474Z,101882
2017-08-14T20:21:12.613Z,101883
2017-08-14T20:23:40.805Z,101885
2017-08-14T20:26:08.978Z,101885
2017-08-14T20:28:37.145Z,101887
2017-08-14T20:31:05.328Z,101884
2017-08-14T20:33:33.492Z,101885
2017-08-14T20:36:01.907Z,101887
2017-08-14T20:38:30.097Z,101882
2017-08-14T20:40:58.268Z,101879
2017-08-14T20:43:26.419Z,101876
2017-08-14T20:45:54.594Z,101882
2017-08-14T20:48:22.745Z,101881
2017-08-14T20:50:50.896Z,101885
2017-08-14T20:53:19.850Z,101875
2017-08-14T20:55:48.013Z,101870
2017-08-14T20:58:16.167Z,101882
2017-08-14T21:00:44.358Z,101876
2017-08-14T21:03:12.535Z,101871
2017-08-14T21:05:40.683Z,101871
2017-08-14T21:08:08.881Z,101881
2017-08-14T21:10:37.046Z,101881
2017-08-14T21:13:05.197Z,101865
2017-08-14T21:15:33.384Z,101862
2017-08-14T21:18:01.550Z,101869
2017-08-14T21:20:29.707Z,101860
2017-08-14T21:22:58.659Z,101863
2017-08-14T21:25:26.820Z,101869
2017-08-14T21:27:54.988Z,101852
2017-08-14T21:30:23.165Z,101857
2017-08-14T21:32:51.332Z,101856
2017-08-14T21:35:19.500Z,101851
2017-08-14T21:37:47.675Z,101850
2017-08-14T21:40:15.824Z,101845
2017-08-14T21:42:44.755Z,101844
2017-08-14T21:45:12.960Z,101842
2017-08-14T21:47:41.115Z,101845
2017-08-14T21:50:09.282Z,101845
2017-08-14T21:52:37.459Z,101844
2017-08-14T21:55:05.632Z,101846
2017-08-14T21:57:33.796Z,101841
2017-08-14T22:00:01.966Z,101850
2017-08-14T22:02:30.110Z,101846
2017-08-14T22:04:59.048Z,101846
2017-08-14T22:07:27.225Z,101843
2017-08-14T22:09:55.388Z,101842
2017-08-14T22:12:23.787Z,101839
2017-08-14T22:14:51.960Z,101843
2017-08-14T22:17:20.110Z,101840
2017-08-14T22:19:48.254Z,101845
2017-08-14T22:22:17.200Z,101840
2017-08-14T22:24:45.682Z,101835
2017-08-14T22:27:13.826Z,101833
2017-08-14T22:29:42.026Z,101831
2017-08-14T22:32:10.173Z,101836
2017-08-14T22:34:38.318Z,101833
2017-08-14T22:37:07.285Z,101836
2017-08-14T22:39:35.429Z,101825
2017-08-14T22:42:03.575Z,101823
2017-08-14T22:44:32.515Z,101823
2017-08-14T22:47:00.660Z,101829
2017-08-14T22:49:28.812Z,101821
2017-08-14T22:51:57.754Z,101819
2017-08-14T22:54:25.933Z,101812
2017-08-14T22:56:54.078Z,101819
2017-08-14T22:59:22.596Z,101810
2017-08-14T23:01:50.765Z,101805
2017-08-14T23:04:18.914Z,101798
2017-08-14T23:06:47.100Z,101793
2017-08-14T23:09:15.261Z,101789
2017-08-14T23:11:43.416Z,101792
2017-08-14T23:14:11.612Z,101786
2017-08-14T23:16:39.777Z,101772
2017-08-14T23:19:07.945Z,101778
2017-08-14T23:21:36.141Z,101773
2017-08-14T23:24:04.286Z,101771
2017-08-14T23:26:32.451Z,101772
2017-08-14T23:29:00.655Z,101761
2017-08-14T23:31:28.801Z,101757
2017-08-14T23:33:57.741Z,101754
2017-08-14T23:36:25.928Z,101762
2017-08-14T23:38:54.089Z,101768
2017-08-14T23:41:22.234Z,101753
2017-08-14T23:43:50.439Z,101759
2017-08-14T23:46:18.627Z,101752
2017-08-14T23:48:46.779Z,101742
2017-08-14T23:51:14.954Z,101744
2017-08-14T23:53:43.103Z,101739
2017-08-14T23:56:11.265Z,101736
2017-08-14T23:58:40.218Z,101731
